Time;durP1;ratioP1;P1;durP2;ratioP2;P2;SDS_P1;SDS_P2;PMS_P1;PMS_P2;Temp;Humidity;BMP_temperature;BMP_pressure;BME280_temperature;BME280_humidity;BME280_pressure;Samples;Min_cycle;Max_cycle;Signal;HPM_P1;HPM_P2
2021/11/21 00:01:36;;;;;;;;;;;;;;;;;;5060816;28;20396;-67
2021/11/21 00:04:03;;;;;;;;;;;;;;;;;;5057351;28;20551;-67
2021/11/21 00:06:29;;;;;;;;;;;;;;;;;;5060969;28;19924;-68
2021/11/21 00:08:56;;;;;;;;;;;;;;;;;;5061747;28;19931;-68
2021/11/21 00:11:23;;;;;;;;;;;;;;;;;;5062447;28;19930;-66
2021/11/21 00:13:51;;;;;;;;;;;;;;;;;;5063095;28;19925;-66
2021/11/21 00:16:18;;;;;;;;;;;;;;;;;;5064021;28;20380;-66
2021/11/21 00:18:45;;;;;;;;;;;;;;;;;;5059387;28;19924;-66
2021/11/21 00:21:12;;;;;;;;;;;;;;;;;;5063515;28;19924;-66
2021/11/21 00:23:39;;;;;;;;;;;;;;;;;;5062558;28;19924;-67
2021/11/21 00:26:06;;;;;;;;;;;;;;;;;;5064086;28;20304;-67
2021/11/21 00:28:33;;;;;;;;;;;;;;;;;;5066618;28;19959;-68
2021/11/21 00:31:00;;;;;;;;;;;;;;;;;;5070797;28;19935;-67
2021/11/21 00:33:27;;;;;;;;;;;;;;;;;;5062765;28;19924;-67
2021/11/21 00:35:54;;;;;;;;;;;;;;;;;;5058990;28;20012;-66
2021/11/21 00:38:21;;;;;;;;;;;;;;;;;;5068766;28;19925;-69
2021/11/21 00:40:48;;;;;;;;;;;;;;;;;;5070169;28;19931;-67
2021/11/21 00:43:15;;;;;;;;;;;;;;;;;;5068632;28;19925;-66
2021/11/21 00:45:42;;;;;;;;;;;;;;;;;;5059551;28;20029;-68
2021/11/21 00:48:09;;;;;;;;;;;;;;;;;;5060959;28;19931;-68
2021/11/21 00:50:36;;;;;;;;;;;;;;;;;;5061002;28;19964;-67
2021/11/21 00:53:03;;;;;;;;;;;;;;;;;;5062665;28;19924;-67
2021/11/21 00:55:35;;;;;;;;;;;;;;;;;;5065743;28;19924;-67
2021/11/21 00:58:02;;;;;;;;;;;;;;;;;;5063440;28;20529;-67
2021/11/21 01:00:29;;;;;;;;;;;;;;;;;;5065664;28;19924;-68
2021/11/21 01:02:56;;;;;;;;;;;;;;;;;;5060903;28;20365;-67
2021/11/21 01:05:23;;;;;;;;;;;;;;;;;;5068744;28;19924;-67
2021/11/21 01:07:50;;;;;;;;;;;;;;;;;;5065215;28;19928;-67
2021/11/21 01:10:17;;;;;;;;;;;;;;;;;;5065542;28;19925;-67
2021/11/21 01:12:44;;;;;;;;;;;;;;;;;;5069277;28;19928;-66
2021/11/21 01:15:11;;;;;;;;;;;;;;;;;;5066604;28;20015;-67
2021/11/21 01:17:38;;;;;;;;;;;;;;;;;;5062113;28;19925;-66
2021/11/21 01:20:05;;;;;;;;;;;;;;;;;;5069358;28;19925;-67
2021/11/21 01:22:32;;;;;;;;;;;;;;;;;;5065518;28;19928;-67
2021/11/21 01:24:59;;;;;;;;;;;;;;;;;;5067600;28;20044;-67
2021/11/21 01:27:26;;;;;;;;;;;;;;;;;;5061145;28;19947;-67
2021/11/21 01:29:53;;;;;;;;;;;;;;;;;;5062729;28;19932;-66
2021/11/21 01:32:20;;;;;;;;;;;;;;;;;;5064558;28;19925;-67
2021/11/21 01:34:47;;;;;;;;;;;;;;;;;;5064227;28;20362;-67
2021/11/21 01:37:14;;;;;;;;;;;;;;;;;;5071917;28;19925;-66
2021/11/21 01:39:41;;;;;;;;;;;;;;;;;;5065254;28;20019;-67
2021/11/21 01:42:08;;;;;;;;;;;;;;;;;;5056487;28;20296;-67
2021/11/21 01:44:35;;;;;;;;;;;;;;;;;;5066539;28;19931;-66
2021/11/21 01:47:03;;;;;;;;;;;;;;;;;;5066554;28;19951;-67
2021/11/21 01:49:30;;;;;;;;;;;;;;;;;;5068732;28;19924;-67
2021/11/21 01:51:57;;;;;;;;;;;;;;;;;;5068604;28;19924;-67
2021/11/21 01:54:24;;;;;;;;;;;;;;;;;;5061130;28;19929;-67
2021/11/21 01:56:51;;;;;;;;;;;;;;;;;;5061777;28;20388;-67
2021/11/21 01:59:18;;;;;;;;;;;;;;;;;;5064404;28;19986;-66
2021/11/21 02:01:45;;;;;;;;;;;;;;;;;;5060329;28;19924;-66
2021/11/21 02:04:12;;;;;;;;;;;;;;;;;;5062722;28;19929;-67
2021/11/21 02:06:39;;;;;;;;;;;;;;;;;;5067090;28;19928;-67
2021/11/21 02:09:06;;;;;;;;;;;;;;;;;;5065038;28;19955;-67
2021/11/21 02:11:33;;;;;;;;;;;;;;;;;;5061227;28;19924;-67
2021/11/21 02:14:00;;;;;;;;;;;;;;;;;;5061027;28;20015;-66
2021/11/21 02:16:27;;;;;;;;;;;;;;;;;;5061712;28;19929;-67
2021/11/21 02:18:54;;;;;;;;;;;;;;;;;;5067229;28;20246;-67
2021/11/21 02:21:21;;;;;;;;;;;;;;;;;;5064826;28;19932;-66
2021/11/21 02:23:48;;;;;;;;;;;;;;;;;;5059236;28;19931;-69
2021/11/21 02:26:17;;;;;;;;;;;;;;;;;;5062872;28;20320;-67
2021/11/21 02:28:44;;;;;;;;;;;;;;;;;;5064507;28;19924;-67
2021/11/21 02:31:11;;;;;;;;;;;;;;;;;;5060379;28;19932;-66
2021/11/21 02:33:38;;;;;;;;;;;;;;;;;;5060500;28;19929;-66
2021/11/21 02:36:06;;;;;;;;;;;;;;;;;;5064919;28;19924;-67
2021/11/21 02:38:33;;;;;;;;;;;;;;;;;;5058689;28;19933;-67
2021/11/21 02:41:00;;;;;;;;;;;;;;;;;;5056050;28;20109;-67
2021/11/21 02:43:27;;;;;;;;;;;;;;;;;;5059938;28;19929;-67
2021/11/21 02:45:53;;;;;;;;;;;;;;;;;;5058920;28;20305;-67
2021/11/21 02:48:20;;;;;;;;;;;;;;;;;;5061000;28;19931;-67
2021/11/21 02:50:47;;;;;;;;;;;;;;;;;;5061859;28;19924;-67
2021/11/21 02:53:14;;;;;;;;;;;;;;;;;;5062886;28;19925;-66
2021/11/21 02:55:41;;;;;;;;;;;;;;;;;;5062339;28;19932;-67
2021/11/21 02:58:08;;;;;;;;;;;;;;;;;;5063475;28;20412;-67
2021/11/21 03:00:35;;;;;;;;;;;;;;;;;;5065106;28;19935;-67
2021/11/21 03:03:02;;;;;;;;;;;;;;;;;;5059791;28;19935;-67
2021/11/21 03:05:29;;;;;;;;;;;;;;;;;;5058253;28;20038;-67
2021/11/21 03:07:56;;;;;;;;;;;;;;;;;;5061862;28;19979;-67
2021/11/21 03:10:23;;;;;;;;;;;;;;;;;;5063096;28;20014;-67
2021/11/21 03:12:50;;;;;;;;;;;;;;;;;;5059962;28;19924;-67
2021/11/21 03:15:17;;;;;;;;;;;;;;;;;;5062496;28;20015;-67
2021/11/21 03:17:44;;;;;;;;;;;;;;;;;;5058202;28;19925;-66
2021/11/21 03:20:11;;;;;;;;;;;;;;;;;;5065069;28;19931;-66
2021/11/21 03:22:38;;;;;;;;;;;;;;;;;;5060969;28;19924;-67
2021/11/21 03:25:05;;;;;;;;;;;;;;;;;;5059903;28;19930;-66
2021/11/21 03:27:32;;;;;;;;;;;;;;;;;;5064687;28;19925;-67
2021/11/21 03:29:59;;;;;;;;;;;;;;;;;;5061525;28;19931;-67
2021/11/21 03:32:25;;;;;;;;;;;;;;;;;;5058308;28;19931;-67
2021/11/21 03:34:52;;;;;;;;;;;;;;;;;;5062378;28;19936;-67
2021/11/21 03:37:19;;;;;;;;;;;;;;;;;;5063934;28;19925;-68
2021/11/21 03:39:47;;;;;;;;;;;;;;;;;;5063555;28;20308;-67
2021/11/21 03:42:14;;;;;;;;;;;;;;;;;;5060344;28;19935;-68
2021/11/21 03:44:41;;;;;;;;;;;;;;;;;;5055528;28;19932;-68
2021/11/21 03:47:08;;;;;;;;;;;;;;;;;;5062134;28;19931;-68
2021/11/21 03:49:35;;;;;;;;;;;;;;;;;;5063134;28;19936;-67
2021/11/21 03:52:02;;;;;;;;;;;;;;;;;;5063249;28;19925;-67
2021/11/21 03:54:29;;;;;;;;;;;;;;;;;;5066007;28;20303;-67
2021/11/21 03:56:56;;;;;;;;;;;;;;;;;;5062774;28;19929;-67
2021/11/21 03:59:23;;;;;;;;;;;;;;;;;;5061549;28;19928;-67
2021/11/21 04:01:49;;;;;;;;;;;;;;;;;;5061215;28;19932;-66
2021/11/21 04:04:18;;;;;;;;;;;;;;;;;;5062999;28;19928;-67
2021/11/21 04:06:45;;;;;;;;;;;;;;;;;;5063235;28;20338;-67
2021/11/21 04:09:11;;;;;;;;;;;;;;;;;;5069204;28;19924;-67
2021/11/21 04:11:38;;;;;;;;;;;;;;;;;;5069532;28;20364;-67
2021/11/21 04:14:05;;;;;;;;;;;;;;;;;;5061853;28;19932;-67
2021/11/21 04:16:32;;;;;;;;;;;;;;;;;;5061718;28;19968;-67
2021/11/21 04:18:59;;;;;;;;;;;;;;;;;;5066290;28;19924;-66
2021/11/21 04:21:26;;;;;;;;;;;;;;;;;;5069337;28;19935;-67
2021/11/21 04:23:54;;;;;;;;;;;;;;;;;;5064964;28;19925;-67
2021/11/21 04:26:20;;;;;;;;;;;;;;;;;;5063010;28;19932;-68
2021/11/21 04:28:47;;;;;;;;;;;;;;;;;;5058984;28;19932;-67
2021/11/21 04:31:14;;;;;;;;;;;;;;;;;;5063936;28;19924;-68
2021/11/21 04:33:41;;;;;;;;;;;;;;;;;;5059098;28;19956;-69
2021/11/21 04:36:08;;;;;;;;;;;;;;;;;;5063117;28;20300;-69
2021/11/21 04:38:35;;;;;;;;;;;;;;;;;;5065940;28;20690;-68
2021/11/21 04:41:02;;;;;;;;;;;;;;;;;;5065836;28;19924;-67
2021/11/21 04:43:29;;;;;;;;;;;;;;;;;;5065632;28;19939;-66
2021/11/21 04:45:57;;;;;;;;;;;;;;;;;;5065846;28;19924;-68
2021/11/21 04:48:24;;;;;;;;;;;;;;;;;;5061273;28;19929;-68
2021/11/21 04:50:51;;;;;;;;;;;;;;;;;;5064656;28;19924;-68
2021/11/21 04:53:18;;;;;;;;;;;;;;;;;;5063743;28;19925;-68
2021/11/21 04:55:45;;;;;;;;;;;;;;;;;;5063066;28;20491;-68
2021/11/21 04:58:14;;;;;;;;;;;;;;;;;;5062613;28;19926;-68
2021/11/21 05:00:41;;;;;;;;;;;;;;;;;;5068120;28;20494;-67
2021/11/21 05:03:08;;;;;;;;;;;;;;;;;;5060662;28;19931;-67
2021/11/21 05:05:35;;;;;;;;;;;;;;;;;;5065498;28;19936;-68
2021/11/21 05:08:04;;;;;;;;;;;;;;;;;;5063799;28;21088;-67
2021/11/21 05:10:31;;;;;;;;;;;;;;;;;;5069866;28;19928;-66
2021/11/21 05:12:58;;;;;;;;;;;;;;;;;;5061834;28;19925;-67
2021/11/21 05:15:25;;;;;;;;;;;;;;;;;;5059752;28;20415;-67
2021/11/21 05:17:53;;;;;;;;;;;;;;;;;;5054585;28;20308;-65
2021/11/21 05:20:20;;;;;;;;;;;;;;;;;;5065583;28;19936;-67
2021/11/21 05:22:47;;;;;;;;;;;;;;;;;;5061664;28;19925;-67
2021/11/21 05:25:14;;;;;;;;;;;;;;;;;;5065363;28;19929;-67
2021/11/21 05:27:43;;;;;;;;;;;;;;;;;;5061173;28;20599;-67
2021/11/21 05:30:10;;;;;;;;;;;;;;;;;;5059322;28;19948;-68
2021/11/21 05:32:37;;;;;;;;;;;;;;;;;;5059821;28;20296;-67
2021/11/21 05:35:05;;;;;;;;;;;;;;;;;;5067073;28;19924;-67
2021/11/21 05:37:34;;;;;;;;;;;;;;;;;;5065258;28;19928;-68
2021/11/21 05:40:01;;;;;;;;;;;;;;;;;;5062616;28;20359;-68
2021/11/21 05:42:29;;;;;;;;;;;;;;;;;;5059024;28;19928;-68
2021/11/21 05:44:56;;;;;;;;;;;;;;;;;;5060049;28;19996;-67
2021/11/21 05:47:23;;;;;;;;;;;;;;;;;;5064191;28;20314;-66
2021/11/21 05:49:50;;;;;;;;;;;;;;;;;;5070826;28;19948;-68
2021/11/21 05:52:17;;;;;;;;;;;;;;;;;;5059895;28;20468;-65
2021/11/21 05:54:43;;;;;;;;;;;;;;;;;;5064806;28;19937;-68
2021/11/21 05:57:12;;;;;;;;;;;;;;;;;;5065822;28;19970;-67
2021/11/21 05:59:39;;;;;;;;;;;;;;;;;;5062537;28;19924;-68
2021/11/21 06:02:06;;;;;;;;;;;;;;;;;;5057871;28;19925;-68
2021/11/21 06:04:33;;;;;;;;;;;;;;;;;;5060168;28;19936;-68
2021/11/21 06:07:00;;;;;;;;;;;;;;;;;;5068449;28;19925;-69
2021/11/21 06:09:27;;;;;;;;;;;;;;;;;;5065264;28;19974;-68
2021/11/21 06:11:54;;;;;;;;;;;;;;;;;;5061870;28;19925;-68
2021/11/21 06:14:21;;;;;;;;;;;;;;;;;;5063168;28;19924;-66
2021/11/21 06:16:48;;;;;;;;;;;;;;;;;;5066659;28;21633;-68
2021/11/21 06:19:15;;;;;;;;;;;;;;;;;;5058979;28;19932;-68
2021/11/21 06:21:42;;;;;;;;;;;;;;;;;;5063763;28;20020;-67
2021/11/21 06:24:09;;;;;;;;;;;;;;;;;;5065221;28;19928;-68
2021/11/21 06:26:36;;;;;;;;;;;;;;;;;;5060204;28;19955;-68
2021/11/21 06:29:03;;;;;;;;;;;;;;;;;;5066800;28;20307;-66
2021/11/21 06:31:30;;;;;;;;;;;;;;;;;;5058993;28;19935;-68
2021/11/21 06:33:57;;;;;;;;;;;;;;;;;;5060287;28;19970;-68
2021/11/21 06:36:24;;;;;;;;;;;;;;;;;;5062249;28;20019;-68
2021/11/21 06:38:51;;;;;;;;;;;;;;;;;;5059474;28;19925;-69
2021/11/21 06:41:18;;;;;;;;;;;;;;;;;;5067760;28;19924;-68
2021/11/21 06:43:45;;;;;;;;;;;;;;;;;;5058636;28;19933;-67
2021/11/21 06:46:14;;;;;;;;;;;;;;;;;;5061570;28;20373;-70
2021/11/21 06:48:41;;;;;;;;;;;;;;;;;;5064401;28;19936;-68
2021/11/21 06:51:08;;;;;;;;;;;;;;;;;;5063992;28;20019;-68
2021/11/21 06:53:36;;;;;;;;;;;;;;;;;;5061038;28;20056;-67
2021/11/21 06:56:03;;;;;;;;;;;;;;;;;;5064747;28;19929;-67
2021/11/21 06:58:30;;;;;;;;;;;;;;;;;;5065838;28;19925;-68
2021/11/21 07:00:57;;;;;;;;;;;;;;;;;;5063787;28;19928;-68
2021/11/21 07:03:24;;;;;;;;;;;;;;;;;;5063829;28;19928;-66
2021/11/21 07:05:51;;;;;;;;;;;;;;;;;;5061652;28;19931;-65
2021/11/21 07:08:18;;;;;;;;;;;;;;;;;;5063200;28;20014;-67
2021/11/21 07:10:45;;;;;;;;;;;;;;;;;;5061851;28;20317;-67
2021/11/21 07:13:12;;;;;;;;;;;;;;;;;;5060394;28;19931;-67
2021/11/21 07:15:39;;;;;;;;;;;;;;;;;;5063917;28;19928;-68
2021/11/21 07:18:06;;;;;;;;;;;;;;;;;;5062047;28;19924;-67
2021/11/21 07:20:33;;;;;;;;;;;;;;;;;;5063501;28;20376;-68
2021/11/21 07:23:00;;;;;;;;;;;;;;;;;;5058285;28;20015;-68
2021/11/21 07:25:26;;;;;;;;;;;;;;;;;;5061064;28;19935;-66
2021/11/21 07:27:53;;;;;;;;;;;;;;;;;;5057980;28;19933;-67
2021/11/21 07:30:20;;;;;;;;;;;;;;;;;;5063707;28;20207;-68
2021/11/21 07:32:47;;;;;;;;;;;;;;;;;;5060695;28;19975;-68
2021/11/21 07:35:14;;;;;;;;;;;;;;;;;;5062181;28;20031;-67
2021/11/21 07:37:41;;;;;;;;;;;;;;;;;;5064829;28;19933;-68
2021/11/21 07:40:10;;;;;;;;;;;;;;;;;;5060897;28;19929;-67
2021/11/21 07:42:37;;;;;;;;;;;;;;;;;;5059428;28;19925;-68
2021/11/21 07:45:04;;;;;;;;;;;;;;;;;;5062679;28;19932;-67
2021/11/21 07:47:31;;;;;;;;;;;;;;;;;;5062874;28;20414;-65
2021/11/21 07:49:58;;;;;;;;;;;;;;;;;;5060608;28;19925;-68
2021/11/21 07:52:25;;;;;;;;;;;;;;;;;;5063463;28;19932;-67
2021/11/21 07:54:52;;;;;;;;;;;;;;;;;;5065869;28;19925;-68
2021/11/21 07:57:19;;;;;;;;;;;;;;;;;;5063321;28;19983;-67
2021/11/21 07:59:45;;;;;;;;;;;;;;;;;;5067988;28;20265;-67
2021/11/21 08:02:12;;;;;;;;;;;;;;;;;;5064149;28;19932;-68
2021/11/21 08:04:39;;;;;;;;;;;;;;;;;;5060205;28;20377;-67
2021/11/21 08:07:08;;;;;;;;;;;;;;;;;;5064481;28;20047;-67
2021/11/21 08:09:35;;;;;;;;;;;;;;;;;;5065209;28;19931;-67
2021/11/21 08:12:02;;;;;;;;;;;;;;;;;;5061512;28;20277;-67
2021/11/21 08:14:29;;;;;;;;;;;;;;;;;;5064578;28;19924;-69
2021/11/21 08:16:56;;;;;;;;;;;;;;;;;;5063863;28;19925;-68
2021/11/21 08:19:22;;;;;;;;;;;;;;;;;;5063552;28;19932;-68
2021/11/21 08:21:49;;;;;;;;;;;;;;;;;;5063086;28;19928;-67
2021/11/21 08:24:16;;;;;;;;;;;;;;;;;;5059590;28;19925;-69
2021/11/21 08:26:43;;;;;;;;;;;;;;;;;;5062585;28;20170;-68
2021/11/21 08:29:10;;;;;;;;;;;;;;;;;;5063979;28;19925;-66
2021/11/21 08:31:37;;;;;;;;;;;;;;;;;;5057339;28;19929;-68
2021/11/21 08:34:04;;;;;;;;;;;;;;;;;;5059452;28;19929;-68
2021/11/21 08:36:31;;;;;;;;;;;;;;;;;;5062731;28;19925;-66
2021/11/21 08:38:58;;;;;;;;;;;;;;;;;;5061155;28;19925;-65
2021/11/21 08:41:25;;;;;;;;;;;;;;;;;;5058311;28;19924;-68
2021/11/21 08:43:52;;;;;;;;;;;;;;;;;;5062235;28;19976;-67
2021/11/21 08:46:19;;;;;;;;;;;;;;;;;;5061672;28;19924;-67
2021/11/21 08:48:46;;;;;;;;;;;;;;;;;;5065508;28;19931;-67
2021/11/21 08:51:13;;;;;;;;;;;;;;;;;;5063608;28;19932;-67
2021/11/21 08:53:44;;;;;;;;;;;;;;;;;;5062479;28;19925;-67
2021/11/21 08:56:11;;;;;;;;;;;;;;;;;;5070045;28;19947;-68
2021/11/21 08:58:38;;;;;;;;;;;;;;;;;;5065784;28;20387;-65
2021/11/21 09:01:05;;;;;;;;;;;;;;;;;;5061223;28;20296;-67
2021/11/21 09:03:33;;;;;;;;;;;;;;;;;;5066393;28;19935;-68
2021/11/21 09:06:00;;;;;;;;;;;;;;;;;;5064495;28;19924;-68
2021/11/21 09:08:27;;;;;;;;;;;;;;;;;;5066814;28;19924;-67
2021/11/21 09:10:54;;;;;;;;;;;;;;;;;;5064584;28;19938;-68
2021/11/21 09:13:21;;;;;;;;;;;;;;;;;;5067753;28;19946;-68
2021/11/21 09:15:48;;;;;;;;;;;;;;;;;;5066379;28;20294;-67
2021/11/21 09:18:15;;;;;;;;;;;;;;;;;;5061507;28;20043;-68
2021/11/21 09:20:41;;;;;;;;;;;;;;;;;;5067358;28;20312;-68
2021/11/21 09:23:11;;;;;;;;;;;;;;;;;;5064112;28;19931;-68
2021/11/21 09:25:38;;;;;;;;;;;;;;;;;;5063111;28;20021;-67
2021/11/21 09:28:05;;;;;;;;;;;;;;;;;;5066015;28;19936;-68
2021/11/21 09:30:32;;;;;;;;;;;;;;;;;;5063755;28;20021;-67
2021/11/21 09:32:59;;;;;;;;;;;;;;;;;;5060693;28;19924;-67
2021/11/21 09:35:26;;;;;;;;;;;;;;;;;;5066826;28;19925;-66
2021/11/21 09:37:53;;;;;;;;;;;;;;;;;;5064198;28;20288;-68
2021/11/21 09:40:20;;;;;;;;;;;;;;;;;;5064197;28;19925;-68
2021/11/21 09:42:47;;;;;;;;;;;;;;;;;;5061264;28;19929;-67
2021/11/21 09:45:14;;;;;;;;;;;;;;;;;;5062499;28;20280;-67
2021/11/21 09:47:41;;;;;;;;;;;;;;;;;;5066332;28;20315;-68
2021/11/21 09:50:08;;;;;;;;;;;;;;;;;;5067482;28;19979;-69
2021/11/21 09:52:35;;;;;;;;;;;;;;;;;;5062529;28;19928;-68
2021/11/21 09:55:02;;;;;;;;;;;;;;;;;;5067108;28;20399;-67
2021/11/21 09:57:30;;;;;;;;;;;;;;;;;;5067400;28;19925;-69
2021/11/21 09:59:59;;;;;;;;;;;;;;;;;;5063023;28;19928;-69
2021/11/21 10:02:28;;;;;;;;;;;;;;;;;;5063137;28;19924;-68
2021/11/21 10:04:55;;;;;;;;;;;;;;;;;;5064334;28;20289;-68
2021/11/21 10:07:22;;;;;;;;;;;;;;;;;;5066001;28;19931;-68
2021/11/21 10:09:49;;;;;;;;;;;;;;;;;;5067329;28;20443;-68
2021/11/21 10:12:16;;;;;;;;;;;;;;;;;;5061935;28;19943;-69
2021/11/21 10:14:43;;;;;;;;;;;;;;;;;;5064438;28;19925;-68
2021/11/21 10:17:10;;;;;;;;;;;;;;;;;;5064719;28;19934;-67
2021/11/21 10:19:36;;;;;;;;;;;;;;;;;;5063882;28;20221;-68
2021/11/21 10:22:03;;;;;;;;;;;;;;;;;;5063062;28;19924;-68
2021/11/21 10:24:31;;;;;;;;;;;;;;;;;;5061663;28;20424;-69
2021/11/21 10:26:58;;;;;;;;;;;;;;;;;;5064291;28;19987;-67
2021/11/21 10:29:25;;;;;;;;;;;;;;;;;;5073642;22;20512;31
2021/11/21 10:31:52;;;;;;;;;;;;;;;;;;5046004;28;20023;-67
2021/11/21 10:34:19;;;;;;;;;;;;;;;;;;5045878;28;19929;-68
2021/11/21 10:36:46;;;;;;;;;;;;;;;;;;5047890;28;19928;-64
2021/11/21 10:39:14;;;;;;;;;;;;;;;;;;5045990;28;19924;-66
2021/11/21 10:41:41;;;;;;;;;;;;;;;;;;5034065;28;19957;-66
2021/11/21 10:44:08;;;;;;;;;;;;;;;;;;5037308;28;19929;-64
2021/11/21 10:46:35;;;;;;;;;;;;;;;;;;5032151;28;20008;-65
2021/11/21 10:49:02;;;;;;;;;;;;;;;;;;5032749;28;19987;-64
2021/11/21 10:51:29;;;;;;;;;;;;;;;;;;5026894;28;19931;-65
2021/11/21 10:53:56;;;;;;;;;;;;;;;;;;5028706;28;19936;-65
2021/11/21 10:56:23;;;;;;;;;;;;;;;;;;5028575;28;20307;-65
2021/11/21 10:58:50;;;;;;;;;;;;;;;;;;5024409;28;19925;-67
2021/11/21 11:01:17;;;;;;;;;;;;;;;;;;5026907;28;19925;-67
2021/11/21 11:03:46;;;;;;;;;;;;;;;;;;5027528;28;19939;-66
2021/11/21 11:06:13;;;;;;;;;;;;;;;;;;5024815;28;19929;-67
2021/11/21 11:08:40;;;;;;;;;;;;;;;;;;5024311;28;19984;-66
2021/11/21 11:11:10;;;;;;;;;;;;;;;;;;5029615;28;19968;-66
2021/11/21 11:13:37;;;;;;;;;;;;;;;;;;5024231;28;19929;-66
2021/11/21 11:16:04;;;;;;;;;;;;;;;;;;5024234;28;19925;-66
2021/11/21 11:18:31;;;;;;;;;;;;;;;;;;5022793;28;20300;-66
2021/11/21 11:20:58;;;;;;;;;;;;;;;;;;5022852;28;19932;-66
2021/11/21 11:23:25;;;;;;;;;;;;;;;;;;5023402;28;19929;-67
2021/11/21 11:25:52;;;;;;;;;;;;;;;;;;5023435;28;19975;-66
2021/11/21 11:28:19;;;;;;;;;;;;;;;;;;5024599;28;19925;-66
2021/11/21 11:30:47;;;;;;;;;;;;;;;;;;5024136;28;20477;-67
2021/11/21 11:33:14;;;;;;;;;;;;;;;;;;5024352;28;20004;-65
2021/11/21 11:35:42;;;;;;;;;;;;;;;;;;5021877;28;19979;-66
2021/11/21 11:38:09;;;;;;;;;;;;;;;;;;5022411;28;19925;-66
2021/11/21 11:40:36;;;;;;;;;;;;;;;;;;5027454;28;19928;-66
2021/11/21 11:43:03;;;;;;;;;;;;;;;;;;5023392;28;19929;-66
2021/11/21 11:45:30;;;;;;;;;;;;;;;;;;5023065;28;19925;-66
2021/11/21 11:47:57;;;;;;;;;;;;;;;;;;5028737;28;19960;-66
2021/11/21 11:50:24;;;;;;;;;;;;;;;;;;5024291;28;19956;-66
2021/11/21 11:52:51;;;;;;;;;;;;;;;;;;5022021;28;19929;-66
2021/11/21 11:55:18;;;;;;;;;;;;;;;;;;5023541;28;19925;-66
2021/11/21 11:57:45;;;;;;;;;;;;;;;;;;5024352;28;19932;-66
2021/11/21 12:00:12;;;;;;;;;;;;;;;;;;5025188;28;20375;-66
2021/11/21 12:02:41;;;;;;;;;;;;;;;;;;5017702;28;19925;-66
2021/11/21 12:05:08;;;;;;;;;;;;;;;;;;5024537;28;20011;-66
2021/11/21 12:07:35;;;;;;;;;;;;;;;;;;5020316;28;19925;-67
2021/11/21 12:10:02;;;;;;;;;;;;;;;;;;5024014;28;19979;-67
2021/11/21 12:12:29;;;;;;;;;;;;;;;;;;5021032;28;19925;-67
2021/11/21 12:14:56;;;;;;;;;;;;;;;;;;5020152;28;20385;-67
2021/11/21 12:17:25;;;;;;;;;;;;;;;;;;5020062;28;19933;-67
2021/11/21 12:19:53;;;;;;;;;;;;;;;;;;5018611;28;19979;-67
2021/11/21 12:22:20;;;;;;;;;;;;;;;;;;5020937;28;19951;-64
2021/11/21 12:24:47;;;;;;;;;;;;;;;;;;5023301;28;19929;-65
2021/11/21 12:27:14;;;;;;;;;;;;;;;;;;5022509;28;20297;-65
2021/11/21 12:29:44;;;;;;;;;;;;;;;;;;5023530;28;19929;-65
2021/11/21 12:32:11;;;;;;;;;;;;;;;;;;5021048;28;20415;-65
2021/11/21 12:34:39;;;;;;;;;;;;;;;;;;5025410;28;19932;-65
2021/11/21 12:37:06;;;;;;;;;;;;;;;;;;5026276;28;19933;-65
2021/11/21 12:39:33;;;;;;;;;;;;;;;;;;5028009;28;19925;-65
2021/11/21 12:42:00;;;;;;;;;;;;;;;;;;5024246;28;20449;-65
2021/11/21 12:44:27;;;;;;;;;;;;;;;;;;5020294;28;19925;-65
2021/11/21 12:46:54;;;;;;;;;;;;;;;;;;5021676;28;20024;-65
2021/11/21 12:49:21;;;;;;;;;;;;;;;;;;5024054;28;19925;-65
2021/11/21 12:51:48;;;;;;;;;;;;;;;;;;5022554;28;19933;-64
2021/11/21 12:54:15;;;;;;;;;;;;;;;;;;5021040;28;19932;-64
2021/11/21 12:56:42;;;;;;;;;;;;;;;;;;5022762;28;19933;-65
2021/11/21 12:59:09;;;;;;;;;;;;;;;;;;5023017;28;19931;-65
2021/11/21 13:01:40;;;;;;;;;;;;;;;;;;5022431;28;19928;-65
2021/11/21 13:04:07;;;;;;;;;;;;;;;;;;5021423;28;20286;-65
2021/11/21 13:06:34;;;;;;;;;;;;;;;;;;5022527;28;20000;-65
2021/11/21 13:09:02;;;;;;;;;;;;;;;;;;5022510;28;19940;-64
2021/11/21 13:11:29;;;;;;;;;;;;;;;;;;5022018;28;20181;-66
2021/11/21 13:13:57;;;;;;;;;;;;;;;;;;5021374;28;19949;-65
2021/11/21 13:16:24;;;;;;;;;;;;;;;;;;5024201;28;19932;-66
2021/11/21 13:18:51;;;;;;;;;;;;;;;;;;5019868;28;19932;-65
2021/11/21 13:21:19;;;;;;;;;;;;;;;;;;5024610;28;20385;-65
2021/11/21 13:23:46;;;;;;;;;;;;;;;;;;5026491;28;19947;-65
2021/11/21 13:26:14;;;;;;;;;;;;;;;;;;5022025;28;19932;-65
2021/11/21 13:28:41;;;;;;;;;;;;;;;;;;5023910;28;19939;-66
2021/11/21 13:31:08;;;;;;;;;;;;;;;;;;4958514;28;1774904;-65
2021/11/21 13:33:35;;;;;;;;;;;;;;;;;;5021683;28;19933;-66
2021/11/21 13:36:02;;;;;;;;;;;;;;;;;;5021326;28;19933;-66
2021/11/21 13:38:29;;;;;;;;;;;;;;;;;;5022555;28;19933;-66
2021/11/21 13:40:56;;;;;;;;;;;;;;;;;;5021223;28;19935;-67
2021/11/21 13:43:23;;;;;;;;;;;;;;;;;;5026113;28;19929;-67
2021/11/21 13:45:50;;;;;;;;;;;;;;;;;;5029773;28;20350;-67
2021/11/21 13:48:17;;;;;;;;;;;;;;;;;;5026273;28;19935;-66
2021/11/21 13:50:46;;;;;;;;;;;;;;;;;;5027792;28;19929;-66
2021/11/21 13:53:13;;;;;;;;;;;;;;;;;;5023897;28;19932;-66
2021/11/21 13:55:40;;;;;;;;;;;;;;;;;;5023281;28;19965;-66
2021/11/21 13:58:07;;;;;;;;;;;;;;;;;;5024975;28;20052;-67
2021/11/21 14:00:34;;;;;;;;;;;;;;;;;;5023402;28;19925;-65
2021/11/21 14:03:01;;;;;;;;;;;;;;;;;;5020408;28;19929;-65
2021/11/21 14:05:29;;;;;;;;;;;;;;;;;;5019994;28;19933;-68
2021/11/21 14:07:56;;;;;;;;;;;;;;;;;;5023202;28;19941;-66
2021/11/21 14:10:24;;;;;;;;;;;;;;;;;;5021771;28;20301;-66
2021/11/21 14:12:51;;;;;;;;;;;;;;;;;;5022550;28;19931;-67
2021/11/21 14:15:19;;;;;;;;;;;;;;;;;;5022018;28;20303;-67
2021/11/21 14:17:46;;;;;;;;;;;;;;;;;;5020138;28;20467;-67
2021/11/21 14:20:12;;;;;;;;;;;;;;;;;;5022132;28;20319;-67
2021/11/21 14:22:41;;;;;;;;;;;;;;;;;;5020685;28;20948;-67
2021/11/21 14:25:08;;;;;;;;;;;;;;;;;;5024501;28;19932;-67
2021/11/21 14:27:35;;;;;;;;;;;;;;;;;;5024799;28;20297;-66
2021/11/21 14:30:04;;;;;;;;;;;;;;;;;;5021140;28;20396;-67
2021/11/21 14:32:31;;;;;;;;;;;;;;;;;;5023546;28;20373;-66
2021/11/21 14:34:58;;;;;;;;;;;;;;;;;;5024998;28;19925;-66
2021/11/21 14:37:25;;;;;;;;;;;;;;;;;;5029194;28;19925;-66
2021/11/21 14:39:54;;;;;;;;;;;;;;;;;;5028462;28;19925;-66
2021/11/21 14:42:20;;;;;;;;;;;;;;;;;;5025952;28;19999;-66
2021/11/21 14:44:47;;;;;;;;;;;;;;;;;;5023995;28;20362;-66
2021/11/21 14:47:16;;;;;;;;;;;;;;;;;;5025966;28;19932;-66
2021/11/21 14:49:45;;;;;;;;;;;;;;;;;;5026584;28;19929;-65
2021/11/21 14:52:14;;;;;;;;;;;;;;;;;;5026446;28;20334;-66
2021/11/21 14:54:42;;;;;;;;;;;;;;;;;;5026052;28;19947;-66
2021/11/21 14:57:11;;;;;;;;;;;;;;;;;;5027576;28;19969;-66
2021/11/21 14:59:38;;;;;;;;;;;;;;;;;;5025247;28;19925;-66
2021/11/21 15:02:05;;;;;;;;;;;;;;;;;;5022164;28;19972;-66
2021/11/21 15:04:32;;;;;;;;;;;;;;;;;;5021572;28;19929;-67
2021/11/21 15:06:59;;;;;;;;;;;;;;;;;;5018379;28;19925;-67
2021/11/21 15:09:26;;;;;;;;;;;;;;;;;;5023133;28;19925;-67
2021/11/21 15:11:53;;;;;;;;;;;;;;;;;;5021815;28;19931;-67
2021/11/21 15:14:20;;;;;;;;;;;;;;;;;;5026206;28;19925;-66
2021/11/21 15:16:48;;;;;;;;;;;;;;;;;;5024520;28;19929;-67
2021/11/21 15:19:15;;;;;;;;;;;;;;;;;;5025619;28;20394;-65
2021/11/21 15:21:42;;;;;;;;;;;;;;;;;;5029086;28;20367;-66
2021/11/21 15:24:09;;;;;;;;;;;;;;;;;;5026792;28;19925;-66
2021/11/21 15:26:36;;;;;;;;;;;;;;;;;;5028823;28;19935;-66
2021/11/21 15:29:03;;;;;;;;;;;;;;;;;;5025636;28;20008;-66
2021/11/21 15:31:30;;;;;;;;;;;;;;;;;;5027103;28;20011;-66
2021/11/21 15:33:57;;;;;;;;;;;;;;;;;;5027283;28;20361;-66
2021/11/21 15:36:24;;;;;;;;;;;;;;;;;;5029303;28;19925;-67
2021/11/21 15:38:51;;;;;;;;;;;;;;;;;;5033636;28;19925;-66
2021/11/21 15:41:18;;;;;;;;;;;;;;;;;;5019609;28;20067;-67
2021/11/21 15:43:45;;;;;;;;;;;;;;;;;;5020224;28;19929;-67
2021/11/21 15:46:12;;;;;;;;;;;;;;;;;;5021853;28;20218;-67
2021/11/21 15:48:39;;;;;;;;;;;;;;;;;;5022823;28;19925;-67
2021/11/21 15:51:06;;;;;;;;;;;;;;;;;;5020097;28;19925;-66
2021/11/21 15:53:33;;;;;;;;;;;;;;;;;;5020726;28;19929;-66
2021/11/21 15:56:00;;;;;;;;;;;;;;;;;;5023288;28;19959;-66
2021/11/21 15:58:27;;;;;;;;;;;;;;;;;;5025294;28;20071;-66
2021/11/21 16:00:54;;;;;;;;;;;;;;;;;;5027790;28;20398;-66
2021/11/21 16:03:21;;;;;;;;;;;;;;;;;;5024863;28;19940;-66
2021/11/21 16:05:50;;;;;;;;;;;;;;;;;;5026324;28;19968;-66
2021/11/21 16:08:17;;;;;;;;;;;;;;;;;;5027655;28;19940;-66
2021/11/21 16:10:45;;;;;;;;;;;;;;;;;;5023303;28;20012;-66
2021/11/21 16:13:12;;;;;;;;;;;;;;;;;;5025634;28;19929;-66
2021/11/21 16:15:39;;;;;;;;;;;;;;;;;;5023710;28;20028;-66
2021/11/21 16:18:06;;;;;;;;;;;;;;;;;;5023193;28;19932;-66
2021/11/21 16:20:33;;;;;;;;;;;;;;;;;;5023044;28;19951;-66
2021/11/21 16:23:00;;;;;;;;;;;;;;;;;;5027787;28;20360;-66
2021/11/21 16:25:27;;;;;;;;;;;;;;;;;;5025953;28;19940;-66
2021/11/21 16:27:54;;;;;;;;;;;;;;;;;;5023915;28;19940;-66
2021/11/21 16:30:23;;;;;;;;;;;;;;;;;;5024129;28;19933;-67
2021/11/21 16:32:50;;;;;;;;;;;;;;;;;;5030402;28;20523;-67
2021/11/21 16:35:17;;;;;;;;;;;;;;;;;;5030568;28;20048;-67
2021/11/21 16:37:44;;;;;;;;;;;;;;;;;;5028529;28;19991;-64
2021/11/21 16:40:11;;;;;;;;;;;;;;;;;;5028021;28;19933;-67
2021/11/21 16:42:39;;;;;;;;;;;;;;;;;;5025547;28;19929;-66
2021/11/21 16:45:06;;;;;;;;;;;;;;;;;;5027927;28;19995;-65